createdAt,value
2019-04-11T00:00:45.938Z,12.30
2019-04-11T00:03:15.516Z,12.50
2019-04-11T00:05:45.327Z,13.50
2019-04-11T00:08:14.585Z,12.47
2019-04-11T00:10:44.970Z,12.37
2019-04-11T00:13:21.645Z,13.37
2019-04-11T00:15:45.549Z,13.53
2019-04-11T00:18:14.820Z,17.00
2019-04-11T00:20:44.388Z,12.40
2019-04-11T00:23:14.180Z,11.27
2019-04-11T00:25:44.094Z,12.03
2019-04-11T00:28:13.712Z,16.30
2019-04-11T00:30:44.034Z,12.07
2019-04-11T00:33:13.979Z,14.43
2019-04-11T00:35:43.937Z,15.50
2019-04-11T00:38:13.867Z,15.27
2019-04-11T00:40:43.726Z,16.17
2019-04-11T00:43:13.087Z,16.03
2019-04-11T00:45:43.490Z,16.37
2019-04-11T00:48:13.315Z,13.07
2019-04-11T00:50:43.328Z,13.63
2019-04-11T00:53:16.019Z,14.30
2019-04-11T00:55:46.015Z,17.03
2019-04-11T00:58:17.177Z,12.73
2019-04-11T01:00:47.161Z,16.40
2019-04-11T01:03:16.429Z,14.03
2019-04-11T01:05:45.803Z,17.07
2019-04-11T01:08:15.704Z,11.03
2019-04-11T01:10:45.713Z,12.60
2019-04-11T01:13:15.745Z,10.60
2019-04-11T01:15:52.526Z,11.83
2019-04-11T01:18:22.312Z,12.27
2019-04-11T01:20:51.574Z,16.70
2019-04-11T01:23:20.812Z,13.53
2019-04-11T01:25:50.056Z,10.47
2019-04-11T01:28:19.205Z,16.30
2019-04-11T01:30:57.611Z,9.63
2019-04-11T01:33:27.492Z,11.30
2019-04-11T01:35:57.465Z,9.47
2019-04-11T01:38:28.254Z,10.70
2019-04-11T01:40:58.261Z,12.93
2019-04-11T01:43:28.141Z,13.20
2019-04-11T01:45:58.709Z,10.43
2019-04-11T01:48:38.288Z,13.07
2019-04-11T01:51:07.585Z,16.53
2019-04-11T01:53:37.330Z,11.80
2019-04-11T01:56:07.267Z,12.53
2019-04-11T01:58:36.841Z,13.27
2019-04-11T02:01:12.678Z,15.90
2019-04-11T02:03:52.746Z,12.07
2019-04-11T02:06:22.229Z,14.83
2019-04-11T02:08:52.030Z,11.83
2019-04-11T02:11:21.322Z,14.80
2019-04-11T02:13:50.597Z,14.97
2019-04-11T02:16:20.999Z,11.17
2019-04-11T02:18:50.302Z,11.73
2019-04-11T02:21:19.950Z,11.37
2019-04-11T02:24:09.818Z,11.67
2019-04-11T02:26:39.477Z,13.57
2019-04-11T02:29:08.952Z,13.13
2019-04-11T02:31:39.018Z,16.77
2019-04-11T02:34:08.871Z,13.23
2019-04-11T02:36:38.498Z,13.40
2019-04-11T02:39:16.714Z,11.30
2019-04-11T02:41:42.173Z,18.53
2019-04-11T02:44:27.088Z,13.73
2019-04-11T02:46:50.730Z,14.60
2019-04-11T02:49:14.908Z,14.00
2019-04-11T02:51:45.040Z,16.30
2019-04-11T02:54:15.917Z,15.33
2019-04-11T02:56:48.804Z,13.23
2019-04-11T02:59:17.674Z,23.97
2019-04-11T03:01:48.434Z,12.90
2019-04-11T03:04:20.037Z,22.50
2019-04-11T03:06:49.782Z,13.33
2019-04-11T03:09:19.754Z,16.63
2019-04-11T03:11:51.565Z,12.80
2019-04-11T03:14:21.111Z,12.27
2019-04-11T03:17:01.157Z,15.73
2019-04-11T03:19:37.521Z,16.20
2019-04-11T03:21:54.493Z,18.77
2019-04-11T03:24:26.513Z,13.73
2019-04-11T03:26:58.089Z,16.90
2019-04-11T03:29:28.632Z,15.60
2019-04-11T03:37:24.178Z,16.17
2019-04-11T03:39:52.691Z,14.43
2019-04-11T03:42:17.112Z,15.40
2019-04-11T03:44:40.194Z,14.33
2019-04-11T03:47:21.945Z,14.83
2019-04-11T03:49:44.914Z,12.67
2019-04-11T03:52:08.722Z,13.77
2019-04-11T03:54:40.142Z,16.17
2019-04-11T03:57:09.743Z,14.47
2019-04-11T03:59:40.736Z,14.53
2019-04-11T04:02:12.550Z,18.20
2019-04-11T04:04:43.416Z,15.50
2019-04-11T04:07:14.931Z,15.73
2019-04-11T04:09:45.967Z,18.23
2019-04-11T04:12:16.088Z,14.03
2019-04-11T04:15:06.512Z,13.77
2019-04-11T04:17:45.609Z,13.70
2019-04-11T04:20:33.148Z,14.30
2019-04-11T04:23:34.160Z,16.63
2019-04-11T04:26:06.172Z,14.33
2019-04-11T04:28:38.006Z,15.13
2019-04-11T04:31:09.162Z,12.93
2019-04-11T04:33:39.909Z,13.13
2019-04-11T04:36:11.042Z,18.87
2019-04-11T04:38:41.651Z,15.57
2019-04-11T04:41:23.901Z,15.03
2019-04-11T04:43:45.902Z,18.07
2019-04-11T04:46:31.463Z,16.17
2019-04-11T04:48:48.865Z,18.20
2019-04-11T04:51:19.955Z,18.13
2019-04-11T04:53:50.133Z,17.73
2019-04-11T04:56:24.438Z,17.83
2019-04-11T04:58:50.956Z,16.40
2019-04-11T05:01:21.708Z,19.20
2019-04-11T05:03:51.260Z,16.40
2019-04-11T05:06:20.717Z,15.47
2019-04-11T05:08:51.384Z,15.80
2019-04-11T05:11:20.907Z,17.57
2019-04-11T05:13:51.742Z,24.80
2019-04-11T05:16:20.982Z,32.90
2019-04-11T05:18:50.566Z,35.17
2019-04-11T05:21:21.190Z,39.90
2019-04-11T05:23:52.072Z,39.90
2019-04-11T05:26:21.756Z,46.13
2019-04-11T05:28:52.970Z,41.00
2019-04-11T05:31:22.714Z,33.73
2019-04-11T05:33:51.990Z,29.23
2019-04-11T05:36:22.690Z,32.40
2019-04-11T05:38:52.677Z,26.03
2019-04-11T05:41:23.561Z,27.37
2019-04-11T05:43:53.719Z,28.23
2019-04-11T05:46:32.985Z,33.43
2019-04-11T05:49:01.055Z,32.60
2019-04-11T05:51:36.970Z,26.50
2019-04-11T05:54:07.373Z,25.60
2019-04-11T05:56:33.879Z,20.90
2019-04-11T05:59:17.228Z,21.77
2019-04-11T06:01:52.732Z,21.50
2019-04-11T06:04:30.241Z,23.53
2019-04-11T06:07:11.567Z,23.87
2019-04-11T06:09:44.147Z,19.50
2019-04-11T06:12:22.485Z,26.00
2019-04-11T06:14:57.668Z,23.80
2019-04-11T06:17:27.049Z,19.80
2019-04-11T06:20:33.807Z,21.27
2019-04-11T06:23:25.451Z,20.33
2019-04-11T06:26:08.779Z,18.90
2019-04-11T06:28:38.086Z,19.23
2019-04-11T06:31:26.344Z,18.97
2019-04-11T06:33:59.378Z,19.53
2019-04-11T06:36:50.408Z,17.60
2019-04-11T06:39:45.319Z,14.30
2019-04-11T06:42:33.662Z,14.07
2019-04-11T06:45:29.303Z,15.40
2019-04-11T06:48:30.160Z,16.03
2019-04-11T06:51:13.615Z,13.90
2019-04-11T06:53:46.899Z,14.37
2019-04-11T06:56:20.955Z,14.37
2019-04-11T06:59:00.237Z,14.97
2019-04-11T07:01:30.491Z,17.13
2019-04-11T07:04:03.654Z,16.93
2019-04-11T07:06:35.690Z,19.70
2019-04-11T07:09:25.524Z,16.17
2019-04-11T07:11:59.666Z,14.47
2019-04-11T07:14:47.868Z,19.10
2019-04-11T07:17:36.868Z,12.87
2019-04-11T07:20:29.337Z,15.00
2019-04-11T07:23:16.181Z,13.00
2019-04-11T07:26:04.803Z,19.80
2019-04-11T07:28:52.309Z,23.93
2019-04-11T07:31:39.822Z,12.90
2019-04-11T07:34:32.600Z,17.53
2019-04-11T07:37:16.997Z,15.47
2019-04-11T07:40:24.140Z,17.53
2019-04-11T07:43:17.599Z,26.30
2019-04-11T07:46:06.831Z,17.90
2019-04-11T07:48:42.867Z,14.63
2019-04-11T07:51:40.609Z,19.07
2019-04-11T07:54:13.764Z,14.83
2019-04-11T07:57:01.994Z,13.13
2019-04-11T07:59:49.194Z,20.53
2019-04-11T08:02:37.595Z,15.40
2019-04-11T08:05:46.700Z,12.70
2019-04-11T08:08:51.416Z,12.87
2019-04-11T08:11:28.260Z,14.77
2019-04-11T08:14:16.172Z,12.50
2019-04-11T08:17:04.414Z,11.23
2019-04-11T08:19:53.311Z,11.30
2019-04-11T08:22:57.156Z,17.07
2019-04-11T08:25:45.254Z,12.87
2019-04-11T08:28:16.424Z,14.73
2019-04-11T08:31:01.784Z,12.40
2019-04-11T08:33:33.006Z,10.27
2019-04-11T08:36:17.972Z,12.07
2019-04-11T08:38:48.781Z,12.93
2019-04-11T08:41:55.540Z,11.90
2019-04-11T08:44:30.051Z,12.00
2019-04-11T08:47:04.462Z,11.37
2019-04-11T08:49:37.981Z,9.30
2019-04-11T08:52:20.936Z,11.57
2019-04-11T08:55:06.110Z,10.80
2019-04-11T08:57:47.920Z,12.53
2019-04-11T09:00:44.592Z,15.17
2019-04-11T09:03:31.599Z,10.03
2019-04-11T09:06:06.304Z,9.07
2019-04-11T09:08:54.786Z,12.40
2019-04-11T09:11:26.584Z,11.50
2019-04-11T09:14:13.791Z,8.87
2019-04-11T09:16:52.324Z,10.80
2019-04-11T09:19:43.650Z,12.40
2019-04-11T09:22:39.366Z,11.57
2019-04-11T09:25:28.988Z,12.03
2019-04-11T09:28:17.507Z,10.97
2019-04-11T09:31:07.541Z,14.13
2019-04-11T09:33:59.455Z,10.60
2019-04-11T09:36:47.265Z,12.63
2019-04-11T09:39:35.083Z,10.53
2019-04-11T09:42:23.711Z,10.70
2019-04-11T09:45:01.424Z,9.50
2019-04-11T09:48:08.342Z,9.83
2019-04-11T09:50:44.741Z,13.80
2019-04-11T09:53:14.386Z,10.40
2019-04-11T09:56:15.276Z,14.73
2019-04-11T09:58:47.644Z,11.17
2019-04-11T10:01:37.098Z,9.80
2019-04-11T10:04:08.756Z,12.73
2019-04-11T10:06:59.152Z,11.00
2019-04-11T10:09:39.987Z,10.53
2019-04-11T10:12:27.686Z,10.83
2019-04-11T10:14:57.729Z,10.80
2019-04-11T10:17:46.487Z,10.23
2019-04-11T10:20:18.332Z,11.37
2019-04-11T10:23:10.314Z,13.57
2019-04-11T10:25:51.725Z,9.93
2019-04-11T10:28:37.624Z,10.87
2019-04-11T10:31:12.582Z,11.57
2019-04-11T10:34:01.415Z,11.37
2019-04-11T10:36:45.286Z,12.43
2019-04-11T10:39:43.839Z,10.23
2019-04-11T10:42:14.880Z,10.07
2019-04-11T10:45:04.537Z,10.93
2019-04-11T10:47:35.064Z,9.57
2019-04-11T10:50:15.368Z,11.27
2019-04-11T10:52:58.406Z,10.67
2019-04-11T10:55:37.800Z,9.23
2019-04-11T10:58:12.973Z,10.73
2019-04-11T11:00:59.870Z,10.20
2019-04-11T11:03:34.244Z,10.67
2019-04-11T11:06:05.401Z,10.37
2019-04-11T11:08:41.712Z,9.53
2019-04-11T11:11:17.497Z,9.37
2019-04-11T11:13:56.739Z,9.50
2019-04-11T11:16:32.633Z,9.10
2019-04-11T11:19:45.700Z,9.87
2019-04-11T11:22:27.509Z,8.63
2019-04-11T11:25:26.752Z,9.37
2019-04-11T11:27:56.482Z,11.23
2019-04-11T11:30:48.021Z,10.60
2019-04-11T11:33:20.312Z,11.63
2019-04-11T11:36:11.400Z,10.37
2019-04-11T11:38:41.865Z,10.87
2019-04-11T11:41:36.512Z,12.80
2019-04-11T11:44:07.661Z,9.80
2019-04-11T11:46:55.588Z,10.07
2019-04-11T11:49:41.750Z,9.23
2019-04-11T11:52:17.208Z,11.70
2019-04-11T11:54:49.861Z,10.23
2019-04-11T11:57:37.069Z,12.43
2019-04-11T12:00:13.275Z,9.47
2019-04-11T12:02:53.938Z,13.53
2019-04-11T12:05:30.142Z,9.90
2019-04-11T12:08:13.900Z,11.47
2019-04-11T12:10:53.411Z,13.00
2019-04-11T12:13:45.482Z,10.33
2019-04-11T12:16:20.827Z,12.67
2019-04-11T12:19:07.002Z,11.80
2019-04-11T12:21:36.798Z,10.83
2019-04-11T12:24:25.319Z,13.50
2019-04-11T12:27:02.378Z,11.15
2019-04-11T12:29:48.846Z,11.63
2019-04-11T12:32:20.086Z,11.23
2019-04-11T12:35:13.920Z,10.87
2019-04-11T12:37:51.813Z,12.93
2019-04-11T12:40:36.754Z,10.70
2019-04-11T12:43:07.435Z,10.63
2019-04-11T12:45:55.714Z,11.57
2019-04-11T12:48:29.906Z,9.40
2019-04-11T12:51:20.973Z,12.57
2019-04-11T12:53:50.290Z,10.87
2019-04-11T12:56:37.222Z,10.57
2019-04-11T12:59:12.654Z,12.20
2019-04-11T13:02:01.174Z,10.97
2019-04-11T13:04:32.059Z,12.93
2019-04-11T13:07:32.734Z,16.07
2019-04-11T13:10:12.211Z,12.23
2019-04-11T13:13:18.704Z,12.83
2019-04-11T13:16:12.388Z,12.53
2019-04-11T13:19:14.527Z,15.13
2019-04-11T13:21:53.840Z,13.10
2019-04-11T13:24:41.070Z,11.57
2019-04-11T13:27:28.036Z,11.17
2019-04-11T13:30:19.047Z,12.03
2019-04-11T13:32:50.521Z,13.27
2019-04-11T13:35:51.205Z,15.30
2019-04-11T13:38:23.533Z,16.87
2019-04-11T13:41:20.963Z,13.43
2019-04-11T13:43:53.672Z,12.40
2019-04-11T13:46:48.116Z,13.43
2019-04-11T13:49:38.872Z,13.07
2019-04-11T13:52:30.178Z,12.90
2019-04-11T13:55:11.147Z,13.30
2019-04-11T13:57:59.786Z,12.17
2019-04-11T14:00:49.690Z,12.50
2019-04-11T14:03:36.413Z,12.20
2019-04-11T14:06:15.884Z,14.77
2019-04-11T14:08:55.077Z,13.87
2019-04-11T14:11:24.899Z,11.43
2019-04-11T14:13:54.940Z,11.73
2019-04-11T14:16:24.108Z,13.43
2019-04-11T14:19:01.876Z,16.20
2019-04-11T14:21:31.519Z,16.47
2019-04-11T14:24:19.727Z,13.70
2019-04-11T14:26:51.968Z,12.60
2019-04-11T14:29:49.303Z,12.40
2019-04-11T14:32:25.096Z,12.83
2019-04-11T14:35:16.517Z,13.27
2019-04-11T14:38:00.276Z,12.50
2019-04-11T14:41:01.634Z,12.10
2019-04-11T14:43:35.523Z,20.13
2019-04-11T14:46:24.369Z,16.37
2019-04-11T14:49:19.183Z,11.97
2019-04-11T14:52:06.410Z,17.40
2019-04-11T14:54:48.891Z,12.30
2019-04-11T14:57:33.851Z,18.23
2019-04-11T15:00:13.698Z,15.63
2019-04-11T15:03:20.937Z,13.67
2019-04-11T15:06:09.418Z,14.43
2019-04-11T15:08:59.028Z,16.07
2019-04-11T15:11:49.927Z,15.10
2019-04-11T15:14:38.561Z,14.73
2019-04-11T15:17:32.674Z,16.27
2019-04-11T15:20:19.757Z,13.70
2019-04-11T15:22:53.946Z,16.83
2019-04-11T15:25:48.946Z,17.23
2019-04-11T15:28:24.768Z,13.47
2019-04-11T15:30:56.285Z,19.30
2019-04-11T15:33:49.675Z,12.57
2019-04-11T15:36:20.291Z,17.97
2019-04-11T15:39:08.606Z,26.07
2019-04-11T15:41:39.877Z,16.90
2019-04-11T15:44:35.265Z,14.60
2019-04-11T15:47:06.639Z,17.70
2019-04-11T15:50:10.713Z,13.93
2019-04-11T15:52:52.073Z,17.57
2019-04-11T15:55:53.217Z,22.70
2019-04-11T15:58:25.349Z,16.30
2019-04-11T16:01:05.087Z,16.03
2019-04-11T16:03:36.012Z,16.43
2019-04-11T16:06:23.917Z,15.77
2019-04-11T16:09:00.068Z,18.00
2019-04-11T16:11:51.609Z,13.50
2019-04-11T16:14:47.979Z,16.03
2019-04-11T16:17:36.309Z,16.47
2019-04-11T16:20:22.167Z,13.30
2019-04-11T16:23:11.324Z,14.37
2019-04-11T16:25:51.975Z,14.03
2019-04-11T16:28:43.413Z,15.77
2019-04-11T16:31:14.241Z,16.07
2019-04-11T16:34:15.916Z,16.63
2019-04-11T16:36:59.459Z,14.87
2019-04-11T16:39:55.037Z,16.80
2019-04-11T16:42:34.752Z,19.47
2019-04-11T16:45:25.061Z,14.40
2019-04-11T16:48:03.739Z,17.70
2019-04-11T16:50:34.081Z,17.90
2019-04-11T16:53:03.765Z,15.30
2019-04-11T16:55:32.955Z,16.87
2019-04-11T16:58:02.578Z,12.73
2019-04-11T17:00:32.735Z,17.53
2019-04-11T17:03:02.544Z,17.17
2019-04-11T17:05:31.783Z,17.93
2019-04-11T17:08:25.892Z,21.20
2019-04-11T17:11:18.869Z,15.13
2019-04-11T17:13:48.325Z,16.00
2019-04-11T17:16:19.089Z,17.57
2019-04-11T17:18:48.402Z,16.37
2019-04-11T17:21:18.263Z,14.47
2019-04-11T17:23:47.811Z,15.23
2019-04-11T17:26:17.526Z,19.33
2019-04-11T17:28:47.041Z,19.80
2019-04-11T17:31:16.735Z,16.43
2019-04-11T17:33:46.376Z,17.30
2019-04-11T17:36:15.527Z,18.87
2019-04-11T17:38:45.109Z,14.90
2019-04-11T17:41:14.472Z,18.47
2019-04-11T17:43:46.750Z,18.00
2019-04-11T17:46:14.781Z,17.43
2019-04-11T17:48:44.627Z,22.57
2019-04-11T17:51:14.223Z,19.57
2019-04-11T17:53:43.941Z,19.77
2019-04-11T17:56:13.263Z,17.17
2019-04-11T17:58:42.447Z,16.90
2019-04-11T18:01:12.088Z,17.07
2019-04-11T18:03:42.701Z,17.63
2019-04-11T18:06:11.962Z,16.40
2019-04-11T18:08:41.629Z,18.90
2019-04-11T18:11:11.708Z,15.83
2019-04-11T18:13:41.025Z,22.30
2019-04-11T18:16:10.261Z,17.53
2019-04-11T18:18:39.589Z,15.10
2019-04-11T18:21:09.419Z,18.13
2019-04-11T18:23:38.664Z,16.57
2019-04-11T18:26:08.393Z,32.03
2019-04-11T18:28:37.706Z,20.20
2019-04-11T18:31:06.980Z,16.90
2019-04-11T18:33:36.547Z,19.07
2019-04-11T18:36:07.379Z,16.30
2019-04-11T18:38:37.565Z,14.33
2019-04-11T18:41:06.821Z,19.37
2019-04-11T18:43:36.759Z,17.27
2019-04-11T18:46:07.141Z,17.73
2019-04-11T18:48:36.416Z,22.03
2019-04-11T18:51:05.581Z,21.57
2019-04-11T18:53:34.814Z,20.37
2019-04-11T18:56:04.753Z,21.70
2019-04-11T18:58:34.622Z,18.40
2019-04-11T19:01:08.836Z,18.70
2019-04-11T19:03:36.685Z,15.97
2019-04-11T19:06:06.203Z,16.47
2019-04-11T19:08:35.457Z,17.83
2019-04-11T19:11:04.793Z,16.67
2019-04-11T19:13:33.948Z,18.87
2019-04-11T19:16:03.858Z,17.23
2019-04-11T19:18:33.183Z,17.57
2019-04-11T19:21:02.825Z,18.17
2019-04-11T19:23:32.409Z,20.93
2019-04-11T19:26:02.453Z,19.07
2019-04-11T19:28:31.708Z,16.97
2019-04-11T19:31:01.380Z,19.77
2019-04-11T19:33:34.081Z,16.83
2019-04-11T19:36:01.517Z,22.00
2019-04-11T19:38:33.066Z,15.37
2019-04-11T19:41:02.362Z,18.27
2019-04-11T19:43:31.562Z,16.40
2019-04-11T19:46:01.368Z,17.77
2019-04-11T19:48:30.615Z,19.50
2019-04-11T19:51:00.258Z,19.77
2019-04-11T19:53:32.848Z,23.70
2019-04-11T19:56:19.796Z,25.63
2019-04-11T19:58:49.074Z,17.37
2019-04-11T20:01:22.802Z,18.30
2019-04-11T20:03:53.745Z,19.17
2019-04-11T20:06:21.038Z,17.53
2019-04-11T20:08:51.045Z,20.43
2019-04-11T20:11:21.026Z,20.67
2019-04-11T20:13:50.315Z,23.43
2019-04-11T20:16:19.960Z,17.30
2019-04-11T20:18:51.339Z,21.97
2019-04-11T20:21:20.928Z,17.73
2019-04-11T20:23:50.321Z,20.27
2019-04-11T20:26:20.902Z,21.40
2019-04-11T20:28:51.562Z,16.10
2019-04-11T20:31:21.009Z,17.90
2019-04-11T20:33:51.002Z,17.20
2019-04-11T20:36:20.173Z,19.70
2019-04-11T20:38:49.355Z,19.70
2019-04-11T20:41:22.969Z,18.23
2019-04-11T20:43:50.268Z,20.70
2019-04-11T20:46:19.842Z,18.17
2019-04-11T20:48:49.436Z,19.10
2019-04-11T20:51:18.668Z,21.37
2019-04-11T20:53:47.965Z,20.63
2019-04-11T20:56:24.100Z,22.73
2019-04-11T20:58:48.169Z,19.97
2019-04-11T21:01:17.537Z,25.23
2019-04-11T21:03:47.143Z,21.43
2019-04-11T21:06:16.761Z,19.00
2019-04-11T21:08:46.016Z,21.40
2019-04-11T21:11:15.528Z,22.90
2019-04-11T21:13:44.699Z,19.20
2019-04-11T21:16:13.967Z,18.97
2019-04-11T21:18:43.522Z,20.07
2019-04-11T21:21:13.018Z,19.43
2019-04-11T21:23:42.678Z,18.33
2019-04-11T21:26:11.867Z,30.13
2019-04-11T21:28:41.397Z,24.57
2019-04-11T21:31:10.686Z,23.93
2019-04-11T21:33:40.552Z,34.13
2019-04-11T21:36:10.225Z,26.47
2019-04-11T21:38:39.792Z,20.13
2019-04-11T21:41:09.766Z,20.60
2019-04-11T21:43:39.280Z,19.77
2019-04-11T21:46:08.564Z,23.97
2019-04-11T21:48:37.915Z,21.50
2019-04-11T21:51:11.090Z,20.97
2019-04-11T21:53:38.494Z,22.10
2019-04-11T21:56:07.800Z,20.70
2019-04-11T21:58:37.387Z,19.73
2019-04-11T22:01:11.726Z,23.13
2019-04-11T22:03:41.748Z,21.70
2019-04-11T22:06:11.452Z,21.43
2019-04-11T22:08:41.226Z,21.70
2019-04-11T22:11:10.873Z,21.03
2019-04-11T22:13:40.954Z,23.90
2019-04-11T22:16:13.380Z,23.40
2019-04-11T22:18:44.379Z,29.57
2019-04-11T22:21:15.618Z,21.07
2019-04-11T22:23:48.883Z,24.70
2019-04-11T22:26:15.372Z,23.80
2019-04-11T22:28:44.963Z,23.07
2019-04-11T22:31:14.302Z,28.17
2019-04-11T22:34:07.571Z,21.63
2019-04-11T22:36:37.318Z,23.00
2019-04-11T22:39:10.282Z,23.37
2019-04-11T22:41:39.654Z,24.90
2019-04-11T22:44:08.918Z,21.33
2019-04-11T22:46:38.870Z,22.03
2019-04-11T22:49:09.386Z,24.53
2019-04-11T22:51:42.677Z,25.80
2019-04-11T22:54:12.987Z,26.20
2019-04-11T22:56:41.870Z,22.37
2019-04-11T22:59:14.001Z,24.83
2019-04-11T23:01:46.515Z,24.10
2019-04-11T23:04:16.648Z,25.70
2019-04-11T23:06:44.936Z,23.33
2019-04-11T23:09:16.610Z,22.40
2019-04-11T23:11:47.006Z,23.57
2019-04-11T23:14:16.995Z,24.20
2019-04-11T23:16:46.909Z,25.30
2019-04-11T23:19:16.056Z,26.20
2019-04-11T23:21:45.731Z,26.77
2019-04-11T23:24:15.200Z,24.93
2019-04-11T23:26:44.448Z,27.63
2019-04-11T23:29:15.802Z,23.17
2019-04-11T23:31:44.673Z,22.47
2019-04-11T23:34:14.326Z,26.53
2019-04-11T23:36:43.566Z,24.07
2019-04-11T23:39:13.048Z,23.50
2019-04-11T23:41:42.254Z,22.40
2019-04-11T23:44:11.414Z,26.07
2019-04-11T23:46:40.961Z,26.53
2019-04-11T23:49:10.130Z,36.20
2019-04-11T23:51:39.432Z,31.30
2019-04-11T23:54:08.642Z,27.87
2019-04-11T23:56:37.812Z,28.60
2019-04-11T23:59:07.334Z,29.40
